Weather History for KSLI - January, 2014

Change the Weather History Date:

Saturday, January 11, 2014

  Actual Average Record
Temperature  
Mean Temperature 56 °F -  
Max Temperature 70 °F 67 °F 82 °F (2002)
Min Temperature 41 °F 49 °F 40 °F (2013)
Degree Days  
Heating Degree Days 10    
Growing Degree Days 6 (Base 50)    
Moisture  
Dew Point 45 °F    
Average Humidity 93    
Maximum Humidity 100    
Minimum Humidity 35    
Precipitation  
Precipitation 0.00 in - - ()
Sea Level Pressure  
Sea Level Pressure 30.11 in    
Wind  
Wind Speed 1 mph (North)    
Max Wind Speed 8 mph    
Max Gust Speed -    
Visibility 3 miles    
Events Fog    
Averages and records for this station are not official NWS values.
T = Trace of Precipitation, MM = Missing Value Source: NWS Daily Summary

Daily Weather History Graph

Daily Weather History Graph

Search for Another Location

Airport or City:

Trip Planner

Search our weather history database for the weather conditions in past years. The results will help you decide how hot, cold, wet, or windy it might be!

Date:

Astronomy

Jan. 11, 2014 Rise Set
Actual Time 6:57 AM PST 5:03 PM PST
Civil Twilight 6:30 AM PST 5:30 PM PST
Nautical Twilight 5:59 AM PST 6:01 PM PST
Astronomical Twilight 5:29 AM PST 6:31 PM PST
Moon 1:48 PM PST (1/11) 3:09 AM PST (1/11)
Length of Visible Light 10h 59m
Length of Day
10h 05m
Waxing Gibbous, 84% of the Moon is Illuminated
Jan 11
Waxing Gibbous
Jan 15
Full
Jan 23
Last Quarter
Jan 30
New
Feb 6
First Quarter

Hourly Weather History & Observations

Time (PST) Temp. Windchill Dew Point Humidity Pressure Visibility Wind Dir Wind Speed Gust Speed Precip Events Conditions
12:08 AM 48.2 °F - 48.2 °F 100% 30.11 in 0.5 mi Calm Calm - N/A Fog Fog
12:13 AM 46.4 °F - 46.4 °F 100% 30.11 in 0.5 mi NNE 2.3 mph - N/A Fog Fog
12:18 AM 46.4 °F - 46.4 °F 100% 30.11 in 0.2 mi North 1.2 mph - N/A Fog Fog
12:28 AM 46.4 °F - 46.4 °F 100% 30.10 in 0.8 mi NNE 1.2 mph - N/A   Clear
12:33 AM 46.4 °F - 46.4 °F 100% 30.11 in 0.5 mi Calm Calm - N/A Fog Fog
12:38 AM 48.2 °F - 48.2 °F 100% 30.11 in 0.2 mi North 2.3 mph - N/A Fog Fog
12:53 AM 48.2 °F - 48.2 °F 100% 30.11 in 0.2 mi North 2.3 mph - N/A Fog Fog
12:58 AM 48.2 °F - 48.2 °F 100% 30.12 in 1.5 mi North 3.5 mph - N/A   Clear
1:03 AM 48.2 °F - 48.2 °F 100% 30.11 in 2.5 mi NNW 3.5 mph - N/A   Clear
1:13 AM 46.4 °F - 46.4 °F 100% 30.11 in 2.0 mi Calm Calm - N/A   Clear
1:23 AM 46.4 °F - 46.4 °F 100% 30.11 in 1.0 mi Calm Calm - N/A   Clear
1:38 AM 46.4 °F - 46.4 °F 100% 30.11 in 0.8 mi Calm Calm - N/A   Clear
1:43 AM 46.4 °F - 46.4 °F 100% 30.11 in 0.5 mi North 1.2 mph - N/A Fog Fog
1:48 AM 44.6 °F - 44.6 °F 100% 30.11 in 0.2 mi Calm Calm - N/A Fog Fog
1:58 AM 45.9 °F - 45.9 °F 100% 30.12 in 0.2 mi North 2.3 mph - N/A Fog Fog
2:03 AM 46.4 °F - 46.4 °F 100% 30.12 in 0.5 mi North 2.3 mph - N/A Fog Fog
2:08 AM 46.4 °F - 46.4 °F 100% 30.12 in 0.5 mi Calm Calm - N/A Fog Fog
2:13 AM 44.6 °F - 44.6 °F 100% 30.12 in 0.5 mi Calm Calm - N/A Fog Fog
2:23 AM 46.4 °F - 46.4 °F 100% 30.12 in 0.2 mi North 1.2 mph - N/A Fog Fog
2:33 AM 46.4 °F - 46.4 °F 100% 30.12 in 0.5 mi Calm Calm - N/A Fog Fog
2:43 AM 46.4 °F - 46.4 °F 100% 30.13 in 0.2 mi Calm Calm - N/A Fog Fog
2:58 AM 46.0 °F - 46.0 °F 100% 30.13 in 0.2 mi North 1.2 mph - N/A Fog Fog
3:18 AM 44.6 °F - 44.6 °F 100% 30.11 in 0.5 mi NE 2.3 mph - N/A Fog Fog
3:23 AM 46.4 °F - 46.4 °F 100% 30.11 in 1.8 mi NNE 1.2 mph - N/A   Clear
3:28 AM 46.4 °F - 46.4 °F 100% 30.11 in 1.5 mi Calm Calm - N/A   Clear
3:38 AM 44.6 °F - 44.6 °F 100% 30.12 in 0.8 mi Calm Calm - N/A   Clear
3:43 AM 44.6 °F - 44.6 °F 100% 30.12 in 0.2 mi North 2.3 mph - N/A Fog Fog
3:53 AM 44.6 °F - 44.6 °F 100% 30.12 in 0.8 mi North 1.2 mph - N/A   Clear
3:58 AM 44.2 °F - 44.2 °F 100% 30.13 in 1.2 mi WSW 2.3 mph - N/A   Clear
4:03 AM 44.6 °F - 44.6 °F 100% 30.12 in 1.5 mi NW 2.3 mph - N/A   Clear
4:08 AM 44.6 °F - 44.6 °F 100% 30.12 in 1.2 mi WSW 2.3 mph - N/A   Clear
4:13 AM 42.8 °F - 42.8 °F 100% 30.12 in 1.5 mi Calm Calm - N/A   Clear
4:18 AM 42.8 °F - 42.8 °F 100% 30.12 in 3.0 mi WNW 2.3 mph - N/A   Clear
4:28 AM 42.8 °F - 42.8 °F 100% 30.12 in 2.5 mi Calm Calm - N/A   Clear
4:33 AM 42.8 °F - 42.8 °F 100% 30.12 in 2.0 mi Calm Calm - N/A   Clear
4:38 AM 42.8 °F - 42.8 °F 100% 30.12 in 1.2 mi Calm Calm - N/A   Clear
4:48 AM 42.8 °F - 42.8 °F 100% 30.12 in 1.8 mi Calm Calm - N/A   Clear
4:53 AM 42.8 °F - 42.8 °F 100% 30.12 in 0.8 mi North 1.2 mph - N/A   Clear
4:58 AM 42.6 °F - 42.6 °F 100% 30.13 in 0.5 mi Calm Calm - N/A Fog Fog
5:03 AM 41.0 °F - 41.0 °F 100% 30.12 in 0.2 mi Calm Calm - N/A Fog Fog
5:18 AM 42.8 °F - 42.8 °F 100% 30.12 in 0.5 mi North 2.3 mph - N/A Fog Fog
5:23 AM 42.8 °F - 42.8 °F 100% 30.12 in 0.5 mi North 2.3 mph - N/A Fog Fog
5:28 AM 42.8 °F - 42.8 °F 100% 30.12 in 1.0 mi North 2.3 mph - N/A   Clear
5:43 AM 42.8 °F 40.1 °F 42.8 °F 100% 30.12 in 1.5 mi North 4.6 mph - N/A   Clear
5:48 AM 44.6 °F - 44.6 °F 100% 30.12 in 2.5 mi North 2.3 mph - N/A   Clear
5:58 AM 43.7 °F - 43.7 °F 100% 30.13 in 1.5 mi Calm Calm - N/A   Clear
6:08 AM 44.6 °F - 44.6 °F 100% 30.12 in 1.8 mi Calm Calm - N/A   Clear
6:13 AM 44.6 °F - 44.6 °F 100% 30.12 in 1.0 mi Calm Calm - N/A   Clear
6:18 AM 44.6 °F - 44.6 °F 100% 30.12 in 0.5 mi Calm Calm - N/A Fog Fog
6:23 AM 44.6 °F - 44.6 °F 100% 30.12 in 0.2 mi Calm Calm - N/A Fog Fog
6:58 AM 41.9 °F - 41.9 °F 100% 30.14 in 0.2 mi NNE 1.2 mph - N/A Fog Fog
7:08 AM 42.8 °F - 42.8 °F 100% 30.13 in 0.2 mi ENE 1.2 mph - N/A Fog Fog
7:13 AM 42.8 °F - 42.8 °F 100% 30.13 in 0.2 mi Calm Calm - N/A Fog Fog
7:18 AM 41.0 °F - 41.0 °F 100% 30.13 in 0.2 mi North 1.2 mph - N/A Fog Fog
7:23 AM 42.8 °F - 42.8 °F 100% 30.13 in 0.2 mi Calm Calm - N/A Fog Fog
7:28 AM 42.8 °F - 42.8 °F 100% 30.13 in 1.8 mi NNW 2.3 mph - N/A   Clear
7:33 AM 42.8 °F - 42.8 °F 100% 30.13 in 2.0 mi North 1.2 mph - N/A   Clear
7:55 AM 45.3 °F - 45.3 °F 100% 30.15 in 3.0 mi Calm Calm - N/A   Scattered Clouds
8:58 AM 52.2 °F - 52.2 °F 100% 30.17 in 7.0 mi Calm Calm - N/A   Partly Cloudy
9:58 AM 61.9 °F - 51.3 °F 68% 30.18 in 7.0 mi Variable 2.3 mph - N/A   Partly Cloudy
10:58 AM 67.6 °F - 50.5 °F 54% 30.16 in 9.0 mi Variable 2.3 mph - N/A   Partly Cloudy
11:58 AM 70.9 °F - 50.2 °F 48% 30.12 in 9.0 mi WSW 3.5 mph - N/A   Clear
12:58 PM 70.2 °F - 50.7 °F 50% 30.09 in 7.0 mi SSW 8.1 mph - N/A   Partly Cloudy
1:58 PM 69.6 °F - 47.7 °F 45% 30.07 in 7.0 mi SSW 8.1 mph - N/A   Partly Cloudy
2:58 PM 69.1 °F - 44.8 °F 42% 30.06 in 10.0 mi South 6.9 mph - N/A   Mostly Cloudy
3:58 PM 67.8 °F - 39.4 °F 35% 30.06 in 10.0 mi South 4.6 mph - N/A   Clear
4:58 PM 64.6 °F - 40.1 °F 41% 30.06 in 10.0 mi West 4.6 mph - N/A   Clear
5:58 PM 60.6 °F - 42.3 °F 51% 30.06 in 10.0 mi WNW 4.6 mph - N/A   Clear
6:58 PM 57.6 °F - 46.9 °F 68% 30.07 in 10.0 mi Calm Calm - N/A   Clear
7:58 PM 54.3 °F - 52.7 °F 94% 30.07 in 10.0 mi Calm Calm - N/A   Clear
8:58 PM 54.0 °F - 53.6 °F 99% 30.10 in 10.0 mi SW 2.3 mph - N/A   Clear
9:58 PM 52.2 °F - 52.2 °F 100% 30.09 in 10.0 mi East 4.6 mph - N/A   Clear
10:58 PM 48.9 °F - 48.9 °F 100% 30.08 in 10.0 mi Calm Calm - N/A   Clear
11:58 PM 50.0 °F - 50.0 °F 100% 30.08 in 10.0 mi North 3.5 mph - N/A   Clear